sensor_id;sensor_type;location;lat;lon;timestamp;temperature;humidity
57719;DHT22;43561;50.090;18.522;2023-05-21T00:07:24;15.40;99.90
57719;DHT22;43561;50.090;18.522;2023-05-21T00:17:26;15.30;99.90
57719;DHT22;43561;50.090;18.522;2023-05-21T00:27:29;15.10;99.90
57719;DHT22;43561;50.090;18.522;2023-05-21T00:37:31;14.90;99.90
57719;DHT22;43561;50.090;18.522;2023-05-21T00:47:33;14.80;99.90
57719;DHT22;43561;50.090;18.522;2023-05-21T00:57:36;14.80;99.90
57719;DHT22;43561;50.090;18.522;2023-05-21T01:07:39;14.70;99.90
57719;DHT22;43561;50.090;18.522;2023-05-21T01:17:42;14.70;99.90
57719;DHT22;43561;50.090;18.522;2023-05-21T01:27:44;14.70;99.90
57719;DHT22;43561;50.090;18.522;2023-05-21T01:38:11;14.60;99.90
57719;DHT22;43561;50.090;18.522;2023-05-21T01:48:16;14.50;99.90
57719;DHT22;43561;50.090;18.522;2023-05-21T01:58:19;14.40;99.90
57719;DHT22;43561;50.090;18.522;2023-05-21T02:08:21;14.40;99.90
57719;DHT22;43561;50.090;18.522;2023-05-21T02:18:23;14.40;99.90
57719;DHT22;43561;50.090;18.522;2023-05-21T02:28:25;14.50;99.90
57719;DHT22;43561;50.090;18.522;2023-05-21T02:38:27;14.40;99.90
57719;DHT22;43561;50.090;18.522;2023-05-21T02:48:29;14.30;99.90
57719;DHT22;43561;50.090;18.522;2023-05-21T02:58:31;14.20;99.90
57719;DHT22;43561;50.090;18.522;2023-05-21T03:08:33;14.20;99.90
57719;DHT22;43561;50.090;18.522;2023-05-21T03:18:35;14.20;99.90
57719;DHT22;43561;50.090;18.522;2023-05-21T03:28:38;14.20;99.90
57719;DHT22;43561;50.090;18.522;2023-05-21T03:38:40;14.30;99.90
57719;DHT22;43561;50.090;18.522;2023-05-21T03:48:42;14.40;99.90
57719;DHT22;43561;50.090;18.522;2023-05-21T03:58:48;14.70;99.90
57719;DHT22;43561;50.090;18.522;2023-05-21T04:08:50;14.90;99.90
57719;DHT22;43561;50.090;18.522;2023-05-21T04:18:52;15.70;99.90
57719;DHT22;43561;50.090;18.522;2023-05-21T04:28:56;16.50;99.90
57719;DHT22;43561;50.090;18.522;2023-05-21T04:38:58;17.30;99.90
57719;DHT22;43561;50.090;18.522;2023-05-21T04:49:01;17.30;99.90
57719;DHT22;43561;50.090;18.522;2023-05-21T04:59:04;18.30;99.90
57719;DHT22;43561;50.090;18.522;2023-05-21T05:09:07;18.40;99.90
57719;DHT22;43561;50.090;18.522;2023-05-21T05:19:10;19.70;99.90
57719;DHT22;43561;50.090;18.522;2023-05-21T05:29:12;20.20;99.90
57719;DHT22;43561;50.090;18.522;2023-05-21T05:39:15;19.60;99.90
57719;DHT22;43561;50.090;18.522;2023-05-21T05:49:19;19.80;99.90
57719;DHT22;43561;50.090;18.522;2023-05-21T05:59:21;19.60;99.90
57719;DHT22;43561;50.090;18.522;2023-05-21T06:09:25;20.50;99.90
57719;DHT22;43561;50.090;18.522;2023-05-21T06:19:27;20.90;99.90
57719;DHT22;43561;50.090;18.522;2023-05-21T06:29:29;21.00;99.90
57719;DHT22;43561;50.090;18.522;2023-05-21T06:39:33;21.70;99.90
57719;DHT22;43561;50.090;18.522;2023-05-21T06:49:37;22.20;99.90
57719;DHT22;43561;50.090;18.522;2023-05-21T06:59:38;23.50;99.90
57719;DHT22;43561;50.090;18.522;2023-05-21T07:09:43;22.40;99.90
57719;DHT22;43561;50.090;18.522;2023-05-21T07:19:45;22.90;98.20
57719;DHT22;43561;50.090;18.522;2023-05-21T07:29:47;23.60;92.80
57719;DHT22;43561;50.090;18.522;2023-05-21T07:39:50;23.30;90.80
57719;DHT22;43561;50.090;18.522;2023-05-21T07:49:52;24.20;92.20
57719;DHT22;43561;50.090;18.522;2023-05-21T07:59:54;25.30;78.30
57719;DHT22;43561;50.090;18.522;2023-05-21T08:09:57;25.00;71.00
57719;DHT22;43561;50.090;18.522;2023-05-21T08:19:59;23.50;81.80
57719;DHT22;43561;50.090;18.522;2023-05-21T08:30:04;24.70;73.00
57719;DHT22;43561;50.090;18.522;2023-05-21T08:40:07;25.10;66.00
57719;DHT22;43561;50.090;18.522;2023-05-21T08:50:15;24.60;66.20
57719;DHT22;43561;50.090;18.522;2023-05-21T09:00:21;26.10;66.20
57719;DHT22;43561;50.090;18.522;2023-05-21T09:10:32;24.70;62.20
57719;DHT22;43561;50.090;18.522;2023-05-21T09:20:34;24.70;62.10
57719;DHT22;43561;50.090;18.522;2023-05-21T09:30:45;25.10;59.10
57719;DHT22;43561;50.090;18.522;2023-05-21T09:40:48;25.30;57.30
57719;DHT22;43561;50.090;18.522;2023-05-21T09:50:51;26.00;54.50
57719;DHT22;43561;50.090;18.522;2023-05-21T10:00:53;25.70;53.90
57719;DHT22;43561;50.090;18.522;2023-05-21T10:10:55;25.70;54.40
57719;DHT22;43561;50.090;18.522;2023-05-21T10:20:58;24.90;53.20
57719;DHT22;43561;50.090;18.522;2023-05-21T10:31:02;25.80;52.30
57719;DHT22;43561;50.090;18.522;2023-05-21T10:41:05;25.70;52.70
57719;DHT22;43561;50.090;18.522;2023-05-21T10:51:17;25.10;51.70
57719;DHT22;43561;50.090;18.522;2023-05-21T11:01:21;25.50;53.40
57719;DHT22;43561;50.090;18.522;2023-05-21T11:11:44;25.00;54.50
57719;DHT22;43561;50.090;18.522;2023-05-21T11:21:49;25.20;52.40
57719;DHT22;43561;50.090;18.522;2023-05-21T11:31:59;25.20;50.90
57719;DHT22;43561;50.090;18.522;2023-05-21T11:42:08;25.40;50.80
57719;DHT22;43561;50.090;18.522;2023-05-21T11:52:11;25.20;50.30
57719;DHT22;43561;50.090;18.522;2023-05-21T12:02:17;25.30;49.50
57719;DHT22;43561;50.090;18.522;2023-05-21T12:12:20;25.30;50.40
57719;DHT22;43561;50.090;18.522;2023-05-21T12:22:23;25.20;49.60
57719;DHT22;43561;50.090;18.522;2023-05-21T12:32:26;25.20;49.20
57719;DHT22;43561;50.090;18.522;2023-05-21T12:42:32;25.40;48.50
57719;DHT22;43561;50.090;18.522;2023-05-21T12:52:34;24.90;49.40
57719;DHT22;43561;50.090;18.522;2023-05-21T13:02:40;25.30;48.70
57719;DHT22;43561;50.090;18.522;2023-05-21T13:12:43;25.20;47.30
57719;DHT22;43561;50.090;18.522;2023-05-21T13:22:50;24.90;45.40
57719;DHT22;43561;50.090;18.522;2023-05-21T13:32:52;24.90;47.00
57719;DHT22;43561;50.090;18.522;2023-05-21T13:42:55;25.00;47.40
57719;DHT22;43561;50.090;18.522;2023-05-21T13:52:57;25.00;49.30
57719;DHT22;43561;50.090;18.522;2023-05-21T14:02:59;25.00;48.10
57719;DHT22;43561;50.090;18.522;2023-05-21T14:13:01;24.80;49.10
57719;DHT22;43561;50.090;18.522;2023-05-21T14:23:19;24.80;49.30
57719;DHT22;43561;50.090;18.522;2023-05-21T14:33:21;24.70;49.40
57719;DHT22;43561;50.090;18.522;2023-05-21T14:43:23;24.60;50.10
57719;DHT22;43561;50.090;18.522;2023-05-21T14:53:25;24.50;50.40
57719;DHT22;43561;50.090;18.522;2023-05-21T15:03:27;24.60;50.70
57719;DHT22;43561;50.090;18.522;2023-05-21T15:13:29;24.20;50.10
57719;DHT22;43561;50.090;18.522;2023-05-21T15:23:31;24.30;50.10
57719;DHT22;43561;50.090;18.522;2023-05-21T15:33:33;24.00;50.90
57719;DHT22;43561;50.090;18.522;2023-05-21T15:43:36;24.00;51.80
57719;DHT22;43561;50.090;18.522;2023-05-21T15:53:38;23.80;51.80
57719;DHT22;43561;50.090;18.522;2023-05-21T16:03:40;23.70;52.90
57719;DHT22;43561;50.090;18.522;2023-05-21T16:13:42;23.60;53.50
57719;DHT22;43561;50.090;18.522;2023-05-21T16:23:44;23.30;54.30
57719;DHT22;43561;50.090;18.522;2023-05-21T16:33:46;23.20;54.50
57719;DHT22;43561;50.090;18.522;2023-05-21T16:43:48;22.90;54.40
57719;DHT22;43561;50.090;18.522;2023-05-21T16:53:50;22.80;54.00
57719;DHT22;43561;50.090;18.522;2023-05-21T17:03:52;22.50;53.90
57719;DHT22;43561;50.090;18.522;2023-05-21T17:13:54;22.30;54.00
57719;DHT22;43561;50.090;18.522;2023-05-21T17:23:56;22.10;54.80
57719;DHT22;43561;50.090;18.522;2023-05-21T17:33:58;21.90;55.60
57719;DHT22;43561;50.090;18.522;2023-05-21T17:44:01;21.60;56.60
57719;DHT22;43561;50.090;18.522;2023-05-21T17:54:03;21.40;57.90
57719;DHT22;43561;50.090;18.522;2023-05-21T18:04:06;21.20;58.70
57719;DHT22;43561;50.090;18.522;2023-05-21T18:14:08;20.90;59.90
57719;DHT22;43561;50.090;18.522;2023-05-21T18:24:10;20.70;61.70
57719;DHT22;43561;50.090;18.522;2023-05-21T18:34:12;20.50;63.60
57719;DHT22;43561;50.090;18.522;2023-05-21T18:44:14;20.20;67.70
57719;DHT22;43561;50.090;18.522;2023-05-21T18:54:16;19.90;72.50
57719;DHT22;43561;50.090;18.522;2023-05-21T19:04:18;19.60;81.00
57719;DHT22;43561;50.090;18.522;2023-05-21T19:14:20;19.30;88.60
57719;DHT22;43561;50.090;18.522;2023-05-21T19:24:22;19.20;92.20
57719;DHT22;43561;50.090;18.522;2023-05-21T19:34:24;18.90;96.20
57719;DHT22;43561;50.090;18.522;2023-05-21T19:44:26;18.60;99.30
57719;DHT22;43561;50.090;18.522;2023-05-21T19:54:28;18.40;99.90
57719;DHT22;43561;50.090;18.522;2023-05-21T20:04:31;18.10;99.90
57719;DHT22;43561;50.090;18.522;2023-05-21T20:14:33;17.90;99.90
57719;DHT22;43561;50.090;18.522;2023-05-21T20:24:35;17.70;99.90
57719;DHT22;43561;50.090;18.522;2023-05-21T20:34:37;17.70;99.90
57719;DHT22;43561;50.090;18.522;2023-05-21T20:44:55;17.60;99.90
57719;DHT22;43561;50.090;18.522;2023-05-21T20:54:57;17.40;99.90
57719;DHT22;43561;50.090;18.522;2023-05-21T21:04:59;17.40;99.90
57719;DHT22;43561;50.090;18.522;2023-05-21T21:15:01;17.30;99.90
57719;DHT22;43561;50.090;18.522;2023-05-21T21:25:04;17.20;99.90
57719;DHT22;43561;50.090;18.522;2023-05-21T21:35:06;17.10;99.90
57719;DHT22;43561;50.090;18.522;2023-05-21T21:45:08;16.80;99.90
57719;DHT22;43561;50.090;18.522;2023-05-21T21:55:11;16.60;99.90
57719;DHT22;43561;50.090;18.522;2023-05-21T22:05:13;16.60;99.90
57719;DHT22;43561;50.090;18.522;2023-05-21T22:15:20;16.40;99.90
57719;DHT22;43561;50.090;18.522;2023-05-21T22:25:22;16.30;99.90
57719;DHT22;43561;50.090;18.522;2023-05-21T22:35:24;16.10;99.90
57719;DHT22;43561;50.090;18.522;2023-05-21T22:45:27;15.90;99.90
57719;DHT22;43561;50.090;18.522;2023-05-21T22:55:30;15.80;99.90
57719;DHT22;43561;50.090;18.522;2023-05-21T23:05:31;15.60;99.90
57719;DHT22;43561;50.090;18.522;2023-05-21T23:15:34;15.40;99.90
57719;DHT22;43561;50.090;18.522;2023-05-21T23:25:36;15.30;99.90
57719;DHT22;43561;50.090;18.522;2023-05-21T23:35:38;15.10;99.90
57719;DHT22;43561;50.090;18.522;2023-05-21T23:45:39;14.90;99.90
57719;DHT22;43561;50.090;18.522;2023-05-21T23:55:42;14.80;99.90
